Avon, Iowa
Current Conditions -  °F | °C
As of 11:54 PM on Saturday 20 Dec 2014 (Local Time) from KDSM Reporting Station
Haze Haze  
Wind Chill: -1°   Ceiling: 200
Heat Index:   Visibility: 1.5mi
Dew Point:   Wind: 9mph
Humidity: 93%   Direction: 160°SSE
Pressure: 30.09"   Gusts: NA
Location:  41.4707°N, 93.4797°W
Report Text: KDSM 210554Z 16008KT 1 1/2SM BR OVC002 03/02 A3009 RMK AO2 SFC VIS 2 SLP196 60000 T00280017 10028 20022 400280000 56011
Loading
Personal Weather Stations






























Interactive Weather Map New forecast layout! Learn more

10-Day Weather Forecast

Advertisements
Track Severe Weather on mobile